sensor_id;sensor_type;location;lat;lon;timestamp;P1;durP1;ratioP1;P2;durP2;ratioP2
64842;SDS011;51310;52.198;5.422;2023-01-26T00:01:12;105.68;;;36.35;;
64842;SDS011;51310;52.198;5.422;2023-01-26T00:03:41;99.50;;;35.10;;
64842;SDS011;51310;52.198;5.422;2023-01-26T00:06:09;99.10;;;36.20;;
64842;SDS011;51310;52.198;5.422;2023-01-26T00:08:38;99.57;;;34.47;;
64842;SDS011;51310;52.198;5.422;2023-01-26T00:11:06;100.95;;;35.15;;
64842;SDS011;51310;52.198;5.422;2023-01-26T00:13:36;93.45;;;34.75;;
64842;SDS011;51310;52.198;5.422;2023-01-26T00:16:02;101.15;;;35.78;;
64842;SDS011;51310;52.198;5.422;2023-01-26T00:18:31;95.75;;;33.95;;
64842;SDS011;51310;52.198;5.422;2023-01-26T00:20:58;89.97;;;32.15;;
64842;SDS011;51310;52.198;5.422;2023-01-26T00:23:26;94.30;;;33.63;;
64842;SDS011;51310;52.198;5.422;2023-01-26T00:25:54;99.60;;;35.05;;
64842;SDS011;51310;52.198;5.422;2023-01-26T00:28:20;90.47;;;34.97;;
64842;SDS011;51310;52.198;5.422;2023-01-26T00:30:46;94.70;;;35.53;;
64842;SDS011;51310;52.198;5.422;2023-01-26T00:33:11;97.90;;;35.13;;
64842;SDS011;51310;52.198;5.422;2023-01-26T00:35:37;97.70;;;35.53;;
64842;SDS011;51310;52.198;5.422;2023-01-26T00:38:03;100.65;;;35.28;;
64842;SDS011;51310;52.198;5.422;2023-01-26T00:40:29;92.30;;;33.67;;
64842;SDS011;51310;52.198;5.422;2023-01-26T00:42:55;99.60;;;32.80;;
64842;SDS011;51310;52.198;5.422;2023-01-26T00:45:21;97.28;;;34.17;;
64842;SDS011;51310;52.198;5.422;2023-01-26T00:47:47;96.38;;;33.92;;
64842;SDS011;51310;52.198;5.422;2023-01-26T00:50:12;93.40;;;34.05;;
64842;SDS011;51310;52.198;5.422;2023-01-26T00:52:39;97.18;;;34.83;;
64842;SDS011;51310;52.198;5.422;2023-01-26T00:55:05;96.50;;;32.85;;
64842;SDS011;51310;52.198;5.422;2023-01-26T00:57:31;93.18;;;33.38;;
64842;SDS011;51310;52.198;5.422;2023-01-26T00:59:57;90.03;;;32.53;;
64842;SDS011;51310;52.198;5.422;2023-01-26T01:02:22;93.17;;;34.93;;
64842;SDS011;51310;52.198;5.422;2023-01-26T01:04:48;96.03;;;34.83;;
64842;SDS011;51310;52.198;5.422;2023-01-26T01:07:14;93.57;;;34.30;;
64842;SDS011;51310;52.198;5.422;2023-01-26T01:09:39;94.93;;;34.00;;
64842;SDS011;51310;52.198;5.422;2023-01-26T01:12:05;87.97;;;33.13;;
64842;SDS011;51310;52.198;5.422;2023-01-26T01:14:31;95.10;;;33.30;;
64842;SDS011;51310;52.198;5.422;2023-01-26T01:16:57;83.57;;;32.15;;
64842;SDS011;51310;52.198;5.422;2023-01-26T01:19:23;83.75;;;32.80;;
64842;SDS011;51310;52.198;5.422;2023-01-26T01:21:48;85.93;;;29.77;;
64842;SDS011;51310;52.198;5.422;2023-01-26T01:24:14;90.77;;;31.93;;
64842;SDS011;51310;52.198;5.422;2023-01-26T01:26:40;84.13;;;29.80;;
64842;SDS011;51310;52.198;5.422;2023-01-26T01:29:05;80.73;;;31.00;;
64842;SDS011;51310;52.198;5.422;2023-01-26T01:31:32;75.10;;;29.25;;
64842;SDS011;51310;52.198;5.422;2023-01-26T01:33:57;74.57;;;27.90;;
64842;SDS011;51310;52.198;5.422;2023-01-26T01:36:23;81.63;;;31.08;;
64842;SDS011;51310;52.198;5.422;2023-01-26T01:38:49;73.55;;;27.45;;
64842;SDS011;51310;52.198;5.422;2023-01-26T01:41:17;72.63;;;28.08;;
64842;SDS011;51310;52.198;5.422;2023-01-26T01:43:45;67.50;;;27.23;;
64842;SDS011;51310;52.198;5.422;2023-01-26T01:46:15;66.60;;;27.65;;
64842;SDS011;51310;52.198;5.422;2023-01-26T01:51:48;64.43;;;25.65;;
64842;SDS011;51310;52.198;5.422;2023-01-26T01:54:25;65.05;;;24.98;;
64842;SDS011;51310;52.198;5.422;2023-01-26T01:57:05;70.47;;;26.08;;
64842;SDS011;51310;52.198;5.422;2023-01-26T01:59:46;65.28;;;24.70;;
64842;SDS011;51310;52.198;5.422;2023-01-26T02:02:19;67.00;;;25.13;;
64842;SDS011;51310;52.198;5.422;2023-01-26T02:04:45;63.63;;;25.47;;
64842;SDS011;51310;52.198;5.422;2023-01-26T02:07:11;67.18;;;24.67;;
64842;SDS011;51310;52.198;5.422;2023-01-26T02:09:38;61.08;;;24.55;;
64842;SDS011;51310;52.198;5.422;2023-01-26T02:12:26;61.75;;;23.40;;
64842;SDS011;51310;52.198;5.422;2023-01-26T02:14:57;64.88;;;24.40;;
64842;SDS011;51310;52.198;5.422;2023-01-26T02:17:25;65.97;;;23.80;;
64842;SDS011;51310;52.198;5.422;2023-01-26T02:20:01;62.15;;;23.77;;
64842;SDS011;51310;52.198;5.422;2023-01-26T02:28:22;66.32;;;24.67;;
64842;SDS011;51310;52.198;5.422;2023-01-26T02:30:52;63.20;;;24.90;;
64842;SDS011;51310;52.198;5.422;2023-01-26T02:33:20;59.03;;;24.00;;
64842;SDS011;51310;52.198;5.422;2023-01-26T02:35:52;61.53;;;24.08;;
64842;SDS011;51310;52.198;5.422;2023-01-26T02:38:19;65.07;;;25.45;;
64842;SDS011;51310;52.198;5.422;2023-01-26T02:43:20;64.40;;;24.43;;
64842;SDS011;51310;52.198;5.422;2023-01-26T02:45:49;69.97;;;25.80;;
64842;SDS011;51310;52.198;5.422;2023-01-26T02:48:15;67.93;;;25.40;;
64842;SDS011;51310;52.198;5.422;2023-01-26T02:51:01;65.40;;;24.65;;
64842;SDS011;51310;52.198;5.422;2023-01-26T02:53:28;65.70;;;24.90;;
64842;SDS011;51310;52.198;5.422;2023-01-26T02:55:53;62.10;;;23.80;;
64842;SDS011;51310;52.198;5.422;2023-01-26T02:58:19;68.73;;;25.13;;
64842;SDS011;51310;52.198;5.422;2023-01-26T03:00:45;69.80;;;26.47;;
64842;SDS011;51310;52.198;5.422;2023-01-26T03:03:14;68.90;;;25.50;;
64842;SDS011;51310;52.198;5.422;2023-01-26T03:05:45;70.43;;;27.15;;
64842;SDS011;51310;52.198;5.422;2023-01-26T03:08:11;66.63;;;25.52;;
64842;SDS011;51310;52.198;5.422;2023-01-26T03:10:37;67.00;;;26.52;;
64842;SDS011;51310;52.198;5.422;2023-01-26T03:13:03;74.40;;;27.73;;
64842;SDS011;51310;52.198;5.422;2023-01-26T03:15:29;72.83;;;26.00;;
64842;SDS011;51310;52.198;5.422;2023-01-26T03:18:21;66.20;;;25.38;;
64842;SDS011;51310;52.198;5.422;2023-01-26T03:21:10;71.13;;;26.08;;
64842;SDS011;51310;52.198;5.422;2023-01-26T03:23:58;61.42;;;23.13;;
64842;SDS011;51310;52.198;5.422;2023-01-26T03:26:43;67.63;;;23.45;;
64842;SDS011;51310;52.198;5.422;2023-01-26T03:29:27;68.70;;;25.02;;
64842;SDS011;51310;52.198;5.422;2023-01-26T03:31:53;61.10;;;23.95;;
64842;SDS011;51310;52.198;5.422;2023-01-26T03:34:19;57.57;;;22.33;;
64842;SDS011;51310;52.198;5.422;2023-01-26T03:36:46;55.35;;;21.70;;
64842;SDS011;51310;52.198;5.422;2023-01-26T03:39:13;65.95;;;23.63;;
64842;SDS011;51310;52.198;5.422;2023-01-26T03:41:59;68.22;;;25.20;;
64842;SDS011;51310;52.198;5.422;2023-01-26T03:44:44;63.35;;;23.85;;
64842;SDS011;51310;52.198;5.422;2023-01-26T03:47:30;63.95;;;21.85;;
64842;SDS011;51310;52.198;5.422;2023-01-26T03:50:15;56.25;;;22.85;;
64842;SDS011;51310;52.198;5.422;2023-01-26T03:52:59;57.88;;;22.48;;
64842;SDS011;51310;52.198;5.422;2023-01-26T03:55:44;61.10;;;24.40;;
64842;SDS011;51310;52.198;5.422;2023-01-26T03:58:28;58.40;;;21.92;;
64842;SDS011;51310;52.198;5.422;2023-01-26T04:00:55;53.67;;;21.93;;
64842;SDS011;51310;52.198;5.422;2023-01-26T04:03:21;56.38;;;22.52;;
64842;SDS011;51310;52.198;5.422;2023-01-26T04:06:05;58.15;;;22.63;;
64842;SDS011;51310;52.198;5.422;2023-01-26T04:08:49;60.17;;;21.92;;
64842;SDS011;51310;52.198;5.422;2023-01-26T04:11:15;59.72;;;21.10;;
64842;SDS011;51310;52.198;5.422;2023-01-26T04:13:41;53.17;;;20.75;;
64842;SDS011;51310;52.198;5.422;2023-01-26T04:16:25;52.37;;;20.63;;
64842;SDS011;51310;52.198;5.422;2023-01-26T04:19:09;57.97;;;22.13;;
64842;SDS011;51310;52.198;5.422;2023-01-26T04:21:54;57.88;;;21.92;;
64842;SDS011;51310;52.198;5.422;2023-01-26T04:24:19;60.13;;;23.48;;
64842;SDS011;51310;52.198;5.422;2023-01-26T04:26:46;60.70;;;23.88;;
64842;SDS011;51310;52.198;5.422;2023-01-26T04:29:13;59.65;;;24.38;;
64842;SDS011;51310;52.198;5.422;2023-01-26T04:31:40;58.08;;;22.23;;
64842;SDS011;51310;52.198;5.422;2023-01-26T04:34:11;58.72;;;22.98;;
64842;SDS011;51310;52.198;5.422;2023-01-26T04:36:39;58.20;;;21.63;;
64842;SDS011;51310;52.198;5.422;2023-01-26T04:39:06;55.03;;;20.55;;
64842;SDS011;51310;52.198;5.422;2023-01-26T04:41:33;54.25;;;21.25;;
64842;SDS011;51310;52.198;5.422;2023-01-26T04:43:59;60.45;;;22.48;;
64842;SDS011;51310;52.198;5.422;2023-01-26T04:46:25;61.33;;;22.33;;
64842;SDS011;51310;52.198;5.422;2023-01-26T04:48:51;58.65;;;23.25;;
64842;SDS011;51310;52.198;5.422;2023-01-26T04:51:18;56.83;;;23.40;;
64842;SDS011;51310;52.198;5.422;2023-01-26T04:53:46;55.85;;;21.45;;
64842;SDS011;51310;52.198;5.422;2023-01-26T04:56:31;57.57;;;23.30;;
64842;SDS011;51310;52.198;5.422;2023-01-26T04:59:01;57.73;;;23.17;;
64842;SDS011;51310;52.198;5.422;2023-01-26T05:01:30;55.58;;;22.30;;
64842;SDS011;51310;52.198;5.422;2023-01-26T05:03:59;56.63;;;23.38;;
64842;SDS011;51310;52.198;5.422;2023-01-26T05:06:26;57.28;;;22.73;;
64842;SDS011;51310;52.198;5.422;2023-01-26T05:08:52;57.30;;;22.97;;
64842;SDS011;51310;52.198;5.422;2023-01-26T05:11:17;60.30;;;22.50;;
64842;SDS011;51310;52.198;5.422;2023-01-26T05:13:43;59.80;;;22.60;;
64842;SDS011;51310;52.198;5.422;2023-01-26T05:16:11;61.72;;;21.73;;
64842;SDS011;51310;52.198;5.422;2023-01-26T05:18:38;56.83;;;21.90;;
64842;SDS011;51310;52.198;5.422;2023-01-26T05:21:05;55.83;;;22.60;;
64842;SDS011;51310;52.198;5.422;2023-01-26T05:23:31;58.27;;;21.93;;
64842;SDS011;51310;52.198;5.422;2023-01-26T05:25:57;55.67;;;23.15;;
64842;SDS011;51310;52.198;5.422;2023-01-26T05:28:23;59.15;;;23.90;;
64842;SDS011;51310;52.198;5.422;2023-01-26T05:30:48;59.08;;;22.13;;
64842;SDS011;51310;52.198;5.422;2023-01-26T05:33:14;59.63;;;22.08;;
64842;SDS011;51310;52.198;5.422;2023-01-26T05:35:40;57.30;;;23.10;;
64842;SDS011;51310;52.198;5.422;2023-01-26T05:38:07;64.40;;;22.80;;
64842;SDS011;51310;52.198;5.422;2023-01-26T05:40:32;61.85;;;21.67;;
64842;SDS011;51310;52.198;5.422;2023-01-26T05:42:58;51.70;;;21.37;;
64842;SDS011;51310;52.198;5.422;2023-01-26T05:45:24;57.22;;;22.23;;
64842;SDS011;51310;52.198;5.422;2023-01-26T05:47:50;53.35;;;20.95;;
64842;SDS011;51310;52.198;5.422;2023-01-26T05:50:16;55.72;;;21.65;;
64842;SDS011;51310;52.198;5.422;2023-01-26T05:52:42;53.33;;;22.17;;
64842;SDS011;51310;52.198;5.422;2023-01-26T05:55:10;60.58;;;24.15;;
64842;SDS011;51310;52.198;5.422;2023-01-26T05:57:36;55.53;;;19.93;;
64842;SDS011;51310;52.198;5.422;2023-01-26T06:00:03;53.58;;;22.80;;
64842;SDS011;51310;52.198;5.422;2023-01-26T06:02:30;58.30;;;21.83;;
64842;SDS011;51310;52.198;5.422;2023-01-26T06:04:56;52.20;;;20.55;;
64842;SDS011;51310;52.198;5.422;2023-01-26T06:07:21;56.90;;;21.30;;
64842;SDS011;51310;52.198;5.422;2023-01-26T06:09:47;56.25;;;21.70;;
64842;SDS011;51310;52.198;5.422;2023-01-26T06:12:14;50.77;;;20.73;;
64842;SDS011;51310;52.198;5.422;2023-01-26T06:14:42;61.30;;;23.45;;
64842;SDS011;51310;52.198;5.422;2023-01-26T06:17:08;51.80;;;20.02;;
64842;SDS011;51310;52.198;5.422;2023-01-26T06:19:34;49.97;;;20.42;;
64842;SDS011;51310;52.198;5.422;2023-01-26T06:22:01;54.05;;;21.52;;
64842;SDS011;51310;52.198;5.422;2023-01-26T06:24:28;50.42;;;20.10;;
64842;SDS011;51310;52.198;5.422;2023-01-26T06:26:54;49.33;;;20.40;;
64842;SDS011;51310;52.198;5.422;2023-01-26T06:29:20;48.72;;;19.05;;
64842;SDS011;51310;52.198;5.422;2023-01-26T06:31:45;48.30;;;19.85;;
64842;SDS011;51310;52.198;5.422;2023-01-26T06:34:11;52.05;;;20.92;;
64842;SDS011;51310;52.198;5.422;2023-01-26T06:36:37;51.97;;;20.60;;
64842;SDS011;51310;52.198;5.422;2023-01-26T06:39:03;57.25;;;21.20;;
64842;SDS011;51310;52.198;5.422;2023-01-26T06:41:28;50.17;;;21.02;;
64842;SDS011;51310;52.198;5.422;2023-01-26T06:43:54;47.22;;;19.00;;
64842;SDS011;51310;52.198;5.422;2023-01-26T06:46:20;52.85;;;19.92;;
64842;SDS011;51310;52.198;5.422;2023-01-26T06:48:45;50.15;;;20.15;;
64842;SDS011;51310;52.198;5.422;2023-01-26T06:53:41;46.47;;;19.65;;
64842;SDS011;51310;52.198;5.422;2023-01-26T06:56:12;49.73;;;19.87;;
64842;SDS011;51310;52.198;5.422;2023-01-26T06:58:38;51.13;;;20.40;;
64842;SDS011;51310;52.198;5.422;2023-01-26T07:01:04;49.37;;;21.10;;
64842;SDS011;51310;52.198;5.422;2023-01-26T07:03:30;55.80;;;21.20;;
64842;SDS011;51310;52.198;5.422;2023-01-26T07:05:56;55.25;;;21.55;;
64842;SDS011;51310;52.198;5.422;2023-01-26T07:08:22;53.05;;;19.00;;
64842;SDS011;51310;52.198;5.422;2023-01-26T07:10:48;55.50;;;21.40;;
64842;SDS011;51310;52.198;5.422;2023-01-26T07:13:14;53.65;;;19.80;;
64842;SDS011;51310;52.198;5.422;2023-01-26T07:15:40;58.75;;;21.10;;
64842;SDS011;51310;52.198;5.422;2023-01-26T07:18:06;56.97;;;21.77;;
64842;SDS011;51310;52.198;5.422;2023-01-26T07:20:32;55.15;;;20.83;;
64842;SDS011;51310;52.198;5.422;2023-01-26T07:23:00;52.50;;;20.57;;
64842;SDS011;51310;52.198;5.422;2023-01-26T07:25:26;50.27;;;20.70;;
64842;SDS011;51310;52.198;5.422;2023-01-26T07:27:55;52.72;;;20.80;;
64842;SDS011;51310;52.198;5.422;2023-01-26T07:30:22;55.35;;;20.90;;
64842;SDS011;51310;52.198;5.422;2023-01-26T07:32:49;59.42;;;20.38;;
64842;SDS011;51310;52.198;5.422;2023-01-26T07:35:15;58.73;;;22.23;;
64842;SDS011;51310;52.198;5.422;2023-01-26T07:37:41;59.10;;;22.05;;
64842;SDS011;51310;52.198;5.422;2023-01-26T07:40:07;58.78;;;20.50;;
64842;SDS011;51310;52.198;5.422;2023-01-26T07:42:34;74.72;;;22.85;;
64842;SDS011;51310;52.198;5.422;2023-01-26T07:44:59;58.28;;;21.50;;
64842;SDS011;51310;52.198;5.422;2023-01-26T07:47:25;62.47;;;21.88;;
64842;SDS011;51310;52.198;5.422;2023-01-26T07:49:52;64.05;;;21.63;;
64842;SDS011;51310;52.198;5.422;2023-01-26T07:52:17;64.90;;;21.73;;
64842;SDS011;51310;52.198;5.422;2023-01-26T07:54:43;57.22;;;21.33;;
64842;SDS011;51310;52.198;5.422;2023-01-26T07:57:09;64.15;;;22.23;;
64842;SDS011;51310;52.198;5.422;2023-01-26T07:59:36;83.70;;;23.25;;
64842;SDS011;51310;52.198;5.422;2023-01-26T08:02:02;66.15;;;23.02;;
64842;SDS011;51310;52.198;5.422;2023-01-26T08:04:28;68.13;;;23.50;;
64842;SDS011;51310;52.198;5.422;2023-01-26T08:06:53;61.13;;;22.05;;
64842;SDS011;51310;52.198;5.422;2023-01-26T08:09:19;64.97;;;21.63;;
64842;SDS011;51310;52.198;5.422;2023-01-26T08:11:45;63.42;;;20.70;;
64842;SDS011;51310;52.198;5.422;2023-01-26T08:14:10;73.20;;;22.42;;
64842;SDS011;51310;52.198;5.422;2023-01-26T08:16:36;72.15;;;23.08;;
64842;SDS011;51310;52.198;5.422;2023-01-26T08:19:02;61.80;;;22.13;;
64842;SDS011;51310;52.198;5.422;2023-01-26T08:21:28;75.10;;;23.03;;
64842;SDS011;51310;52.198;5.422;2023-01-26T08:23:54;64.55;;;21.42;;
64842;SDS011;51310;52.198;5.422;2023-01-26T08:26:20;72.75;;;22.77;;
64842;SDS011;51310;52.198;5.422;2023-01-26T08:28:46;67.82;;;22.20;;
64842;SDS011;51310;52.198;5.422;2023-01-26T08:31:16;63.78;;;21.95;;
64842;SDS011;51310;52.198;5.422;2023-01-26T08:33:44;68.35;;;21.95;;
64842;SDS011;51310;52.198;5.422;2023-01-26T08:36:14;64.95;;;20.95;;
64842;SDS011;51310;52.198;5.422;2023-01-26T08:38:42;73.70;;;22.92;;
64842;SDS011;51310;52.198;5.422;2023-01-26T08:41:07;65.03;;;20.80;;
64842;SDS011;51310;52.198;5.422;2023-01-26T08:43:34;71.60;;;24.05;;
64842;SDS011;51310;52.198;5.422;2023-01-26T08:46:00;63.85;;;23.90;;
64842;SDS011;51310;52.198;5.422;2023-01-26T08:48:26;69.07;;;22.80;;
64842;SDS011;51310;52.198;5.422;2023-01-26T08:50:53;68.00;;;21.77;;
64842;SDS011;51310;52.198;5.422;2023-01-26T08:53:22;62.22;;;21.25;;
64842;SDS011;51310;52.198;5.422;2023-01-26T08:55:48;60.72;;;20.45;;
64842;SDS011;51310;52.198;5.422;2023-01-26T08:58:14;60.43;;;22.67;;
64842;SDS011;51310;52.198;5.422;2023-01-26T09:00:40;62.67;;;23.40;;
64842;SDS011;51310;52.198;5.422;2023-01-26T09:03:06;65.20;;;22.20;;
64842;SDS011;51310;52.198;5.422;2023-01-26T09:05:36;62.90;;;21.35;;
64842;SDS011;51310;52.198;5.422;2023-01-26T09:08:04;58.38;;;21.38;;
64842;SDS011;51310;52.198;5.422;2023-01-26T09:10:32;74.32;;;22.75;;
64842;SDS011;51310;52.198;5.422;2023-01-26T09:12:58;65.10;;;21.00;;
64842;SDS011;51310;52.198;5.422;2023-01-26T09:15:25;62.30;;;19.95;;
64842;SDS011;51310;52.198;5.422;2023-01-26T09:17:51;58.53;;;16.50;;
64842;SDS011;51310;52.198;5.422;2023-01-26T09:20:17;52.33;;;16.50;;
64842;SDS011;51310;52.198;5.422;2023-01-26T09:22:44;52.60;;;15.30;;
64842;SDS011;51310;52.198;5.422;2023-01-26T09:25:10;44.30;;;13.02;;
64842;SDS011;51310;52.198;5.422;2023-01-26T09:27:36;46.85;;;12.98;;
64842;SDS011;51310;52.198;5.422;2023-01-26T09:30:03;47.90;;;9.93;;
64842;SDS011;51310;52.198;5.422;2023-01-26T09:32:31;44.72;;;10.55;;
64842;SDS011;51310;52.198;5.422;2023-01-26T09:34:57;39.05;;;8.50;;
64842;SDS011;51310;52.198;5.422;2023-01-26T09:37:23;37.95;;;7.18;;
64842;SDS011;51310;52.198;5.422;2023-01-26T09:39:49;32.60;;;6.90;;
64842;SDS011;51310;52.198;5.422;2023-01-26T09:45:06;34.30;;;5.35;;
64842;SDS011;51310;52.198;5.422;2023-01-26T09:47:52;21.92;;;4.10;;
64842;SDS011;51310;52.198;5.422;2023-01-26T09:53:27;23.92;;;3.25;;
64842;SDS011;51310;52.198;5.422;2023-01-26T09:56:05;27.02;;;4.38;;
64842;SDS011;51310;52.198;5.422;2023-01-26T09:58:39;25.33;;;3.95;;
64842;SDS011;51310;52.198;5.422;2023-01-26T10:01:12;26.33;;;4.15;;
64842;SDS011;51310;52.198;5.422;2023-01-26T10:04:21;29.08;;;4.50;;
64842;SDS011;51310;52.198;5.422;2023-01-26T10:07:01;24.30;;;4.93;;
64842;SDS011;51310;52.198;5.422;2023-01-26T10:09:34;34.38;;;4.85;;
64842;SDS011;51310;52.198;5.422;2023-01-26T10:12:06;27.33;;;4.03;;
64842;SDS011;51310;52.198;5.422;2023-01-26T10:14:52;23.42;;;3.72;;
64842;SDS011;51310;52.198;5.422;2023-01-26T10:17:38;22.97;;;3.20;;
64842;SDS011;51310;52.198;5.422;2023-01-26T10:22:53;24.80;;;4.53;;
64842;SDS011;51310;52.198;5.422;2023-01-26T10:25:29;27.63;;;3.15;;
64842;SDS011;51310;52.198;5.422;2023-01-26T10:28:10;24.38;;;3.92;;
64842;SDS011;51310;52.198;5.422;2023-01-26T10:30:43;27.83;;;4.50;;
64842;SDS011;51310;52.198;5.422;2023-01-26T10:33:33;24.58;;;4.20;;
64842;SDS011;51310;52.198;5.422;2023-01-26T10:36:00;23.58;;;4.28;;
64842;SDS011;51310;52.198;5.422;2023-01-26T10:40:59;23.77;;;4.20;;
64842;SDS011;51310;52.198;5.422;2023-01-26T10:43:30;29.30;;;4.20;;
64842;SDS011;51310;52.198;5.422;2023-01-26T10:46:00;25.88;;;3.47;;
64842;SDS011;51310;52.198;5.422;2023-01-26T10:48:28;19.45;;;3.70;;
64842;SDS011;51310;52.198;5.422;2023-01-26T10:50:54;27.07;;;3.80;;
64842;SDS011;51310;52.198;5.422;2023-01-26T10:53:47;23.48;;;3.90;;
64842;SDS011;51310;52.198;5.422;2023-01-26T10:56:14;25.27;;;4.00;;
64842;SDS011;51310;52.198;5.422;2023-01-26T11:01:27;17.95;;;3.47;;
64842;SDS011;51310;52.198;5.422;2023-01-26T11:04:11;27.33;;;3.70;;
64842;SDS011;51310;52.198;5.422;2023-01-26T11:06:39;22.52;;;4.00;;
64842;SDS011;51310;52.198;5.422;2023-01-26T11:09:09;27.00;;;4.00;;
64842;SDS011;51310;52.198;5.422;2023-01-26T11:11:53;21.43;;;2.83;;
64842;SDS011;51310;52.198;5.422;2023-01-26T11:14:29;27.63;;;4.23;;
64842;SDS011;51310;52.198;5.422;2023-01-26T11:22:32;23.45;;;3.90;;
64842;SDS011;51310;52.198;5.422;2023-01-26T11:25:21;22.95;;;4.43;;
64842;SDS011;51310;52.198;5.422;2023-01-26T11:36:44;22.98;;;3.20;;
64842;SDS011;51310;52.198;5.422;2023-01-26T11:41:59;33.13;;;3.60;;
64842;SDS011;51310;52.198;5.422;2023-01-26T11:45:19;17.38;;;2.83;;
64842;SDS011;51310;52.198;5.422;2023-01-26T11:48:05;19.60;;;3.17;;
64842;SDS011;51310;52.198;5.422;2023-01-26T11:51:00;21.35;;;3.95;;
64842;SDS011;51310;52.198;5.422;2023-01-26T11:53:50;22.50;;;4.05;;
64842;SDS011;51310;52.198;5.422;2023-01-26T11:56:49;19.15;;;3.53;;
64842;SDS011;51310;52.198;5.422;2023-01-26T11:59:37;14.45;;;2.17;;
64842;SDS011;51310;52.198;5.422;2023-01-26T12:04:57;22.65;;;3.10;;
64842;SDS011;51310;52.198;5.422;2023-01-26T12:07:42;22.80;;;3.67;;
64842;SDS011;51310;52.198;5.422;2023-01-26T12:10:26;20.48;;;2.95;;
64842;SDS011;51310;52.198;5.422;2023-01-26T12:13:07;13.85;;;3.08;;
64842;SDS011;51310;52.198;5.422;2023-01-26T12:15:52;15.30;;;2.10;;
64842;SDS011;51310;52.198;5.422;2023-01-26T12:18:28;21.98;;;3.25;;
64842;SDS011;51310;52.198;5.422;2023-01-26T12:21:04;18.25;;;3.65;;
64842;SDS011;51310;52.198;5.422;2023-01-26T12:26:15;17.03;;;2.57;;
64842;SDS011;51310;52.198;5.422;2023-01-26T12:28:46;22.52;;;2.63;;
64842;SDS011;51310;52.198;5.422;2023-01-26T12:31:42;14.13;;;2.30;;
64842;SDS011;51310;52.198;5.422;2023-01-26T12:34:31;18.15;;;2.90;;
64842;SDS011;51310;52.198;5.422;2023-01-26T12:40:20;16.33;;;2.63;;
64842;SDS011;51310;52.198;5.422;2023-01-26T12:46:08;29.70;;;3.50;;
64842;SDS011;51310;52.198;5.422;2023-01-26T12:48:42;14.25;;;2.90;;
64842;SDS011;51310;52.198;5.422;2023-01-26T12:51:47;9.50;;;1.35;;
64842;SDS011;51310;52.198;5.422;2023-01-26T12:54:22;17.90;;;2.60;;
64842;SDS011;51310;52.198;5.422;2023-01-26T12:57:15;18.63;;;3.15;;
64842;SDS011;51310;52.198;5.422;2023-01-26T12:59:46;11.75;;;2.38;;
64842;SDS011;51310;52.198;5.422;2023-01-26T13:04:55;18.30;;;2.50;;
64842;SDS011;51310;52.198;5.422;2023-01-26T13:12:45;19.15;;;2.35;;
64842;SDS011;51310;52.198;5.422;2023-01-26T13:15:21;16.35;;;3.10;;
64842;SDS011;51310;52.198;5.422;2023-01-26T13:20:39;19.23;;;3.15;;
64842;SDS011;51310;52.198;5.422;2023-01-26T13:28:35;18.02;;;2.75;;
64842;SDS011;51310;52.198;5.422;2023-01-26T13:31:02;13.30;;;2.38;;
64842;SDS011;51310;52.198;5.422;2023-01-26T13:33:30;21.27;;;3.07;;
64842;SDS011;51310;52.198;5.422;2023-01-26T13:35:56;15.40;;;2.47;;
64842;SDS011;51310;52.198;5.422;2023-01-26T13:38:42;21.08;;;2.53;;
64842;SDS011;51310;52.198;5.422;2023-01-26T13:41:18;17.58;;;2.72;;
64842;SDS011;51310;52.198;5.422;2023-01-26T13:43:48;11.90;;;2.08;;
64842;SDS011;51310;52.198;5.422;2023-01-26T13:46:22;13.75;;;2.47;;
64842;SDS011;51310;52.198;5.422;2023-01-26T13:48:58;9.60;;;2.10;;
64842;SDS011;51310;52.198;5.422;2023-01-26T13:51:34;15.93;;;2.13;;
64842;SDS011;51310;52.198;5.422;2023-01-26T13:54:04;11.48;;;2.13;;
64842;SDS011;51310;52.198;5.422;2023-01-26T13:56:42;10.70;;;1.90;;
64842;SDS011;51310;52.198;5.422;2023-01-26T13:59:24;20.60;;;3.13;;
64842;SDS011;51310;52.198;5.422;2023-01-26T14:01:51;23.48;;;3.40;;
64842;SDS011;51310;52.198;5.422;2023-01-26T14:04:28;18.13;;;3.00;;
64842;SDS011;51310;52.198;5.422;2023-01-26T14:09:46;11.52;;;2.15;;
64842;SDS011;51310;52.198;5.422;2023-01-26T14:12:18;15.73;;;2.20;;
64842;SDS011;51310;52.198;5.422;2023-01-26T14:14:49;17.25;;;2.78;;
64842;SDS011;51310;52.198;5.422;2023-01-26T14:17:24;9.60;;;1.52;;
64842;SDS011;51310;52.198;5.422;2023-01-26T14:19:54;14.02;;;2.30;;
64842;SDS011;51310;52.198;5.422;2023-01-26T14:22:23;17.17;;;2.38;;
64842;SDS011;51310;52.198;5.422;2023-01-26T14:24:51;11.23;;;2.33;;
64842;SDS011;51310;52.198;5.422;2023-01-26T14:27:37;14.70;;;2.55;;
64842;SDS011;51310;52.198;5.422;2023-01-26T14:35:30;12.65;;;1.65;;
64842;SDS011;51310;52.198;5.422;2023-01-26T14:38:15;9.65;;;2.10;;
64842;SDS011;51310;52.198;5.422;2023-01-26T14:43:10;13.68;;;2.33;;
64842;SDS011;51310;52.198;5.422;2023-01-26T14:45:38;16.55;;;2.97;;
64842;SDS011;51310;52.198;5.422;2023-01-26T14:48:15;12.52;;;1.65;;
64842;SDS011;51310;52.198;5.422;2023-01-26T14:50:46;15.73;;;2.85;;
64842;SDS011;51310;52.198;5.422;2023-01-26T14:53:22;9.93;;;1.50;;
64842;SDS011;51310;52.198;5.422;2023-01-26T14:55:49;8.07;;;1.95;;
64842;SDS011;51310;52.198;5.422;2023-01-26T14:58:27;13.93;;;1.73;;
64842;SDS011;51310;52.198;5.422;2023-01-26T15:00:57;14.90;;;2.33;;
64842;SDS011;51310;52.198;5.422;2023-01-26T15:03:25;13.27;;;2.20;;
64842;SDS011;51310;52.198;5.422;2023-01-26T15:08:51;13.95;;;2.30;;
64842;SDS011;51310;52.198;5.422;2023-01-26T15:11:26;14.47;;;2.80;;
64842;SDS011;51310;52.198;5.422;2023-01-26T15:19:54;16.38;;;2.22;;
64842;SDS011;51310;52.198;5.422;2023-01-26T15:22:21;13.50;;;2.40;;
64842;SDS011;51310;52.198;5.422;2023-01-26T15:27:30;14.98;;;2.20;;
64842;SDS011;51310;52.198;5.422;2023-01-26T15:30:01;14.48;;;1.95;;
64842;SDS011;51310;52.198;5.422;2023-01-26T15:32:36;11.90;;;2.20;;
64842;SDS011;51310;52.198;5.422;2023-01-26T15:35:05;15.30;;;2.63;;
64842;SDS011;51310;52.198;5.422;2023-01-26T15:40:37;12.63;;;3.03;;
64842;SDS011;51310;52.198;5.422;2023-01-26T15:43:12;14.43;;;1.90;;
64842;SDS011;51310;52.198;5.422;2023-01-26T15:45:57;8.60;;;1.92;;
64842;SDS011;51310;52.198;5.422;2023-01-26T15:48:25;11.63;;;1.83;;
64842;SDS011;51310;52.198;5.422;2023-01-26T15:50:51;12.40;;;1.80;;
64842;SDS011;51310;52.198;5.422;2023-01-26T15:53:18;5.78;;;1.33;;
64842;SDS011;51310;52.198;5.422;2023-01-26T15:55:46;12.90;;;1.83;;
64842;SDS011;51310;52.198;5.422;2023-01-26T15:58:26;11.02;;;1.67;;
64842;SDS011;51310;52.198;5.422;2023-01-26T16:00:52;4.25;;;1.00;;
64842;SDS011;51310;52.198;5.422;2023-01-26T16:03:19;11.68;;;1.67;;
64842;SDS011;51310;52.198;5.422;2023-01-26T16:05:46;8.13;;;1.80;;
64842;SDS011;51310;52.198;5.422;2023-01-26T16:08:12;10.02;;;1.52;;
64842;SDS011;51310;52.198;5.422;2023-01-26T16:10:40;10.40;;;1.60;;
64842;SDS011;51310;52.198;5.422;2023-01-26T16:13:07;15.23;;;1.52;;
64842;SDS011;51310;52.198;5.422;2023-01-26T16:15:38;8.20;;;1.63;;
64842;SDS011;51310;52.198;5.422;2023-01-26T16:18:07;10.98;;;1.60;;
64842;SDS011;51310;52.198;5.422;2023-01-26T16:20:35;8.40;;;1.48;;
64842;SDS011;51310;52.198;5.422;2023-01-26T16:23:10;7.43;;;1.48;;
64842;SDS011;51310;52.198;5.422;2023-01-26T16:25:49;11.00;;;1.50;;